This is the latest recevied weather packets stored in our database for station/object KJ4W. If no packets are shown the sender has not sent any weather packets the latest 10 day(s).
| Time | Temp. | Humidity | Pressure | Rain* | Wind** | Luminosity | Snow |
|---|---|---|---|---|---|---|---|
| 1777756444 | 15.56° C | 58% | 1017.5 hPa | 0 mm | - | - | - |
| 1777755546 | 16.11° C | 56% | 1017.2 hPa | 0 mm | - | - | - |
| 1777754647 | 17.22° C | 56% | 1017 hPa | 0 mm | - | - | - |
| 1777753746 | 17.22° C | 56% | 1016.9 hPa | 0 mm | - | - | - |
| 1777752846 | 17.78° C | 53% | 1016.6 hPa | 0 mm | - | - | - |
| 1777751945 | 19.44° C | 38% | 1016 hPa | 0 mm | - | - | - |
| 1777751046 | 18.89° C | 39% | 1016 hPa | 0 mm | - | - | - |
| 1777750145 | 17.78° C | 47% | 1016 hPa | 0 mm | - | - | - |
| 1777748345 | 18.33° C | 44% | 1016.3 hPa | 0 mm | - | - | - |
| 1777747445 | 17.22° C | 43% | 1016.4 hPa | 0 mm | - | - | - |
| 1777746545 | 18.33° C | 46% | 1016.5 hPa | 0 mm | - | - | - |
| 1777745645 | 17.78° C | 42% | 1016.5 hPa | 0 mm | - | - | - |
| 1777744745 | 17.22° C | 49% | 1016.9 hPa | 0 mm | - | - | - |
| 1777743844 | 17.78° C | 47% | 1016.9 hPa | 0 mm | - | - | - |
| 1777742944 | 17.22° C | 48% | 1017.1 hPa | 0 mm | - | - | - |
| 1777742043 | 17.78° C | 46% | 1017.2 hPa | 0 mm | - | - | - |
| 1777741144 | 17.78° C | 50% | 1017.3 hPa | 0 mm | - | - | - |
| 1777740245 | 17.78° C | 46% | 1017.5 hPa | 0 mm | - | - | - |
| 1777739346 | 17.22° C | 42% | 1017.6 hPa | 0 mm | - | - | - |
| 1777738444 | 17.78° C | 47% | 1017.7 hPa | 0 mm | - | - | - |
| 1777737544 | 17.78° C | 46% | 1017.9 hPa | 0 mm | - | - | - |
| 1777736644 | 16.67° C | 48% | 1018.2 hPa | 0 mm | - | - | - |
| 1777735746 | 16.11° C | 50% | 1018.2 hPa | 0 mm | - | - | - |
| 1777734845 | 15.56° C | 53% | 1018.2 hPa | 0 mm | - | - | - |
| 1777733944 | 14.44° C | 54% | 1018.1 hPa | 0 mm | - | - | - |
* Rain latest hour (hover to see other rain measurements)
** Current wind speed in m/s (hover to see current wind gust speed)